Time;durP1;ratioP1;P1;durP2;ratioP2;P2;SDS_P1;SDS_P2;PMS_P1;PMS_P2;Temp;Humidity;BMP_temperature;BMP_pressure;BME280_temperature;BME280_humidity;BME280_pressure;Samples;Min_cycle;Max_cycle;Signal;HPM_P1;HPM_P2
2022/05/04 00:00:20;;;;;;;0.40;0.40;;;9.70;99.90;;;;;;5014308;28;20519;-72
2022/05/04 00:03:09;;;;;;;0.40;0.40;;;9.60;99.90;;;;;;5013317;28;20433;-72
2022/05/04 00:05:57;;;;;;;0.50;0.50;;;9.60;99.90;;;;;;5014338;28;20489;-73
2022/05/04 00:08:46;;;;;;;0.50;0.50;;;9.60;99.90;;;;;;5013736;28;20425;-73
2022/05/04 00:11:34;;;;;;;0.50;0.50;;;9.60;99.90;;;;;;5014151;28;20503;-73
2022/05/04 00:14:25;;;;;;;0.40;0.40;;;9.70;99.90;;;;;;5014491;28;20437;-73
2022/05/04 00:17:14;;;;;;;0.40;0.40;;;9.70;99.90;;;;;;5013722;28;20581;-74
2022/05/04 00:20:03;;;;;;;0.40;0.40;;;9.80;99.90;;;;;;5014457;28;20536;-72
2022/05/04 00:22:51;;;;;;;0.47;0.47;;;9.80;99.90;;;;;;5013820;28;20433;-73
2022/05/04 00:25:39;;;;;;;0.40;0.40;;;9.80;99.90;;;;;;5013529;28;20488;-74
2022/05/04 00:28:27;;;;;;;0.40;0.40;;;9.80;99.90;;;;;;5013903;28;20449;-72
2022/05/04 00:31:15;;;;;;;0.40;0.40;;;9.80;99.90;;;;;;5013648;28;20450;-73
2022/05/04 00:34:05;;;;;;;0.50;0.50;;;9.80;99.90;;;;;;5013944;28;20485;-73
2022/05/04 00:36:53;;;;;;;0.40;0.40;;;9.70;99.90;;;;;;5013537;28;21018;-72
2022/05/04 00:39:41;;;;;;;0.40;0.40;;;9.70;99.90;;;;;;5013087;28;20572;-72
2022/05/04 00:42:29;;;;;;;0.40;0.40;;;9.70;99.90;;;;;;5013725;28;20434;-72
2022/05/04 00:45:17;;;;;;;0.40;0.40;;;9.60;99.90;;;;;;5014285;28;20568;-73
2022/05/04 00:48:05;;;;;;;0.50;0.50;;;9.50;99.90;;;;;;5016216;28;20476;-73
2022/05/04 00:50:55;;;;;;;0.50;0.50;;;9.40;99.90;;;;;;5013526;28;20532;-72
2022/05/04 00:53:45;;;;;;;0.50;0.50;;;9.30;99.90;;;;;;5013222;28;20425;-73
2022/05/04 00:56:33;;;;;;;0.40;0.40;;;9.30;99.90;;;;;;5014021;28;20425;-72
2022/05/04 00:59:21;;;;;;;0.40;0.40;;;9.30;99.90;;;;;;5013156;28;20483;-73
2022/05/04 01:02:09;;;;;;;0.50;0.50;;;9.30;99.90;;;;;;5013064;28;20465;-72
2022/05/04 01:04:57;;;;;;;0.40;0.40;;;9.20;99.90;;;;;;5013939;28;20440;-73
2022/05/04 01:07:47;;;;;;;0.50;0.50;;;9.20;99.90;;;;;;5013224;28;20604;-72
2022/05/04 01:10:35;;;;;;;0.40;0.40;;;9.30;99.90;;;;;;5012346;28;20446;-72
2022/05/04 01:13:23;;;;;;;0.50;0.50;;;9.30;99.90;;;;;;5013566;28;20423;-72
2022/05/04 01:16:11;;;;;;;0.50;0.50;;;9.20;99.90;;;;;;5032381;28;20672;-72
2022/05/04 01:19:00;;;;;;;0.50;0.50;;;9.20;99.90;;;;;;5013008;28;20430;-72
2022/05/04 01:21:51;;;;;;;0.50;0.50;;;9.10;99.90;;;;;;5012858;28;20440;-73
2022/05/04 01:24:39;;;;;;;0.40;0.40;;;9.10;99.90;;;;;;5011867;28;20492;-72
2022/05/04 01:27:28;;;;;;;0.40;0.40;;;9.00;99.90;;;;;;5012925;28;20968;-72
2022/05/04 01:30:16;;;;;;;0.40;0.40;;;9.00;99.90;;;;;;5012681;28;20448;-72
2022/05/04 01:33:04;;;;;;;0.40;0.40;;;8.80;99.90;;;;;;5013409;28;21001;-73
2022/05/04 01:35:52;;;;;;;0.40;0.40;;;8.90;99.90;;;;;;5012688;28;20461;-73
2022/05/04 01:38:42;;;;;;;0.40;0.40;;;8.70;99.90;;;;;;5013944;28;20432;-72
2022/05/04 01:44:36;;;;;;;0.40;0.40;;;8.70;99.90;;;;;;5013827;28;21005;-73
2022/05/04 01:47:24;;;;;;;0.40;0.40;;;8.70;99.90;;;;;;5014579;28;20523;-72
2022/05/04 01:50:12;;;;;;;1.07;1.07;;;8.60;99.90;;;;;;5017239;28;20532;-72
2022/05/04 01:53:00;;;;;;;0.50;0.50;;;8.60;99.90;;;;;;5017203;28;20916;-72
2022/05/04 01:55:50;;;;;;;0.40;0.40;;;8.70;99.90;;;;;;5017331;28;20853;-72
2022/05/04 01:58:38;;;;;;;0.50;0.50;;;8.50;99.90;;;;;;5017743;28;20422;-72
2022/05/04 02:01:26;;;;;;;0.50;0.50;;;8.50;99.90;;;;;;5016491;28;21025;-75
2022/05/04 02:04:15;;;;;;;0.47;0.47;;;8.50;99.90;;;;;;5016959;28;20446;-72
2022/05/04 02:07:03;;;;;;;0.40;0.40;;;8.50;99.90;;;;;;5018053;28;20500;-72
2022/05/04 02:09:52;;;;;;;0.50;0.50;;;8.40;99.90;;;;;;5016446;28;20460;-72
2022/05/04 02:12:42;;;;;;;0.50;0.50;;;8.40;99.90;;;;;;5016525;28;20426;-72
2022/05/04 02:15:30;;;;;;;0.40;0.40;;;8.30;99.90;;;;;;5017630;28;20429;-72
2022/05/04 02:18:18;;;;;;;0.60;0.60;;;8.40;99.90;;;;;;5017088;28;20635;-73
2022/05/04 02:21:06;;;;;;;0.50;0.50;;;8.20;99.90;;;;;;5017735;28;20519;-71
2022/05/04 02:23:54;;;;;;;0.40;0.40;;;8.30;99.90;;;;;;5017880;28;20962;-73
2022/05/04 02:26:42;;;;;;;0.40;0.40;;;8.30;99.90;;;;;;5017127;28;20487;-71
2022/05/04 02:29:32;;;;;;;0.40;0.40;;;8.30;99.90;;;;;;5016727;28;20441;-72
2022/05/04 02:32:20;;;;;;;0.40;0.40;;;8.30;99.90;;;;;;5016709;28;20954;-72
2022/05/04 02:38:14;;;;;;;0.40;0.40;;;8.30;99.90;;;;;;5017454;28;20515;-72
2022/05/04 02:41:02;;;;;;;0.50;0.50;;;8.30;99.90;;;;;;5017255;28;20583;-72
2022/05/04 02:43:50;;;;;;;0.40;0.40;;;8.30;99.90;;;;;;5016094;28;20484;-71
2022/05/04 02:46:40;;;;;;;0.50;0.50;;;8.40;99.90;;;;;;5016330;28;20425;-72
2022/05/04 02:49:28;;;;;;;0.40;0.40;;;8.50;99.90;;;;;;5018503;28;20469;-73
2022/05/04 02:52:16;;;;;;;0.50;0.50;;;8.50;99.90;;;;;;5017337;28;20861;-73
2022/05/04 02:55:05;;;;;;;0.40;0.40;;;8.60;99.90;;;;;;5015578;28;20430;-73
2022/05/04 02:57:53;;;;;;;0.50;0.50;;;8.60;99.90;;;;;;5015205;28;20435;-73
2022/05/04 03:00:41;;;;;;;0.40;0.40;;;8.70;99.90;;;;;;5016160;28;20469;-72
2022/05/04 03:03:29;;;;;;;0.40;0.40;;;8.80;99.90;;;;;;5015057;28;20433;-72
2022/05/04 03:06:17;;;;;;;0.50;0.50;;;9.00;99.90;;;;;;5015301;28;20425;-72
2022/05/04 03:09:07;;;;;;;0.40;0.40;;;8.90;99.90;;;;;;5015453;28;20521;-73
2022/05/04 03:11:58;;;;;;;0.47;0.47;;;9.00;99.90;;;;;;5015211;28;20488;-72
2022/05/04 03:14:46;;;;;;;0.40;0.40;;;8.80;99.90;;;;;;5015534;28;20418;-72
2022/05/04 03:17:35;;;;;;;2.30;2.20;;;8.80;99.90;;;;;;5014885;28;20805;-72
2022/05/04 03:20:24;;;;;;;0.50;0.50;;;8.90;99.90;;;;;;5014882;28;20552;-72
2022/05/04 03:23:12;;;;;;;0.40;0.40;;;8.90;99.90;;;;;;5015044;28;20633;-71
2022/05/04 03:26:00;;;;;;;0.40;0.40;;;9.00;99.90;;;;;;5014836;28;20546;-72
2022/05/04 03:28:48;;;;;;;0.40;0.40;;;9.10;99.90;;;;;;5014030;28;20556;-72
2022/05/04 03:31:36;;;;;;;0.50;0.50;;;9.20;99.90;;;;;;5013578;28;20457;-72
2022/05/04 03:34:24;;;;;;;0.40;0.40;;;9.20;99.90;;;;;;5015110;28;20516;-73
2022/05/04 03:37:14;;;;;;;0.40;0.40;;;9.20;99.90;;;;;;5014179;28;20437;-72
2022/05/04 03:40:02;;;;;;;0.40;0.40;;;9.30;99.90;;;;;;5015054;28;20539;-73
2022/05/04 03:42:50;;;;;;;0.40;0.40;;;9.20;99.90;;;;;;5014587;28;20426;-73
2022/05/04 03:45:38;;;;;;;0.40;0.40;;;9.30;99.90;;;;;;5014780;28;20469;-73
2022/05/04 03:48:26;;;;;;;0.40;0.40;;;9.20;99.90;;;;;;5014320;28;20477;-72
2022/05/04 03:51:16;;;;;;;0.40;0.40;;;9.30;99.90;;;;;;5014771;28;20454;-72
2022/05/04 03:54:05;;;;;;;0.40;0.40;;;9.30;99.90;;;;;;5014860;28;20465;-72
2022/05/04 03:56:53;;;;;;;0.40;0.40;;;9.20;99.90;;;;;;5014811;28;21009;-73
2022/05/04 03:59:41;;;;;;;0.40;0.40;;;9.30;99.90;;;;;;5013767;28;21024;-72
2022/05/04 04:02:29;;;;;;;0.50;0.50;;;10.50;99.90;;;;;;5014154;28;20488;-72
2022/05/04 04:05:17;;;;;;;0.40;0.40;;;9.20;99.90;;;;;;5013877;28;20444;-73
2022/05/04 04:08:06;;;;;;;0.40;0.40;;;9.30;99.90;;;;;;5014193;28;21148;-72
2022/05/04 04:10:57;;;;;;;0.40;0.40;;;9.40;99.90;;;;;;5013619;28;20450;-75
2022/05/04 04:13:45;;;;;;;0.40;0.40;;;9.40;99.90;;;;;;5013865;28;20425;-72
2022/05/04 04:16:33;;;;;;;0.67;0.67;;;9.50;99.90;;;;;;5014782;28;20418;-72
2022/05/04 04:19:21;;;;;;;0.77;0.77;;;9.50;99.90;;;;;;5014201;28;20811;-72
2022/05/04 04:22:08;;;;;;;0.40;0.40;;;9.60;99.90;;;;;;5013744;28;20462;-72
2022/05/04 04:24:56;;;;;;;0.70;0.70;;;9.50;99.90;;;;;;5014137;28;20466;-72
2022/05/04 04:27:46;;;;;;;0.93;0.93;;;9.50;99.90;;;;;;5013444;28;20470;-73
2022/05/04 04:30:34;;;;;;;0.57;0.57;;;9.50;99.90;;;;;;5014387;28;20532;-73
2022/05/04 04:33:26;;;;;;;1.33;1.13;;;9.40;99.90;;;;;;5013244;28;20492;-72
2022/05/04 04:36:14;;;;;;;0.40;0.40;;;9.40;99.90;;;;;;5014136;28;20460;-73
2022/05/04 04:39:02;;;;;;;0.50;0.50;;;9.30;99.90;;;;;;5013528;28;20458;-72
2022/05/04 04:41:50;;;;;;;0.50;0.50;;;9.30;99.90;;;;;;5012865;28;20846;-72
2022/05/04 04:44:39;;;;;;;0.50;0.50;;;9.50;99.90;;;;;;5013714;28;20468;-72
2022/05/04 04:47:27;;;;;;;0.60;0.60;;;9.40;99.90;;;;;;5013847;28;20442;-72
2022/05/04 04:50:15;;;;;;;0.53;0.53;;;9.50;99.90;;;;;;5013563;28;20466;-73
2022/05/04 04:53:04;;;;;;;0.50;0.50;;;9.50;99.90;;;;;;5013385;28;20939;-74
2022/05/04 04:55:52;;;;;;;0.47;0.47;;;9.50;99.90;;;;;;5015219;28;20437;-71
2022/05/04 04:58:40;;;;;;;0.40;0.40;;;9.50;99.90;;;;;;5012273;28;20421;-72
2022/05/04 05:01:29;;;;;;;0.77;0.77;;;9.70;99.90;;;;;;5012775;28;20897;-73
2022/05/04 05:04:17;;;;;;;0.57;0.57;;;9.70;99.90;;;;;;5012489;28;20431;-73
2022/05/04 05:07:05;;;;;;;0.87;0.87;;;9.70;99.90;;;;;;5012275;28;20764;-73
2022/05/04 05:09:53;;;;;;;3.03;1.13;;;9.80;99.90;;;;;;5012928;28;20473;-73
2022/05/04 05:12:42;;;;;;;0.40;0.40;;;9.90;99.90;;;;;;5013014;28;20453;-73
2022/05/04 05:18:38;;;;;;;0.50;0.50;;;9.90;99.90;;;;;;5012305;28;20499;-71
2022/05/04 05:21:26;;;;;;;1.03;0.93;;;9.90;99.90;;;;;;5012958;28;20437;-73
2022/05/04 05:24:14;;;;;;;0.40;0.40;;;10.10;99.90;;;;;;5012765;28;20549;-72
2022/05/04 05:27:02;;;;;;;0.50;0.50;;;10.20;99.90;;;;;;5012925;28;20501;-72
2022/05/04 05:29:50;;;;;;;0.50;0.50;;;10.20;99.90;;;;;;5013262;28;21018;-73
2022/05/04 05:32:39;;;;;;;0.50;0.50;;;10.30;99.90;;;;;;5012834;28;20972;-72
2022/05/04 05:35:28;;;;;;;0.47;0.47;;;10.30;99.90;;;;;;5013818;28;20426;-73
2022/05/04 05:38:16;;;;;;;0.50;0.50;;;10.50;99.90;;;;;;5012570;28;20437;-72
2022/05/04 05:41:04;;;;;;;0.60;0.60;;;10.40;99.90;;;;;;5046394;28;20444;-71
2022/05/04 05:43:53;;;;;;;0.50;0.50;;;10.40;99.90;;;;;;5053013;28;20478;-72
2022/05/04 05:46:41;;;;;;;0.50;0.50;;;10.40;99.90;;;;;;5043686;28;20573;-71
2022/05/04 05:49:29;;;;;;;0.50;0.50;;;10.50;99.90;;;;;;5041776;28;20472;-71
2022/05/04 05:52:18;;;;;;;0.50;0.50;;;10.60;99.90;;;;;;5038132;28;20450;-72
2022/05/04 05:55:08;;;;;;;0.50;0.50;;;10.80;99.90;;;;;;5037692;28;20845;-72
2022/05/04 05:57:56;;;;;;;1.97;1.90;;;10.90;99.90;;;;;;5037537;28;20420;-72
2022/05/04 06:00:44;;;;;;;1.13;1.13;;;11.00;99.90;;;;;;5036271;28;20460;-72
2022/05/04 06:03:32;;;;;;;0.40;0.40;;;10.90;99.90;;;;;;5033416;28;20448;-72
2022/05/04 06:06:21;;;;;;;0.40;0.40;;;11.00;99.90;;;;;;5037713;28;20429;-73
2022/05/04 06:09:11;;;;;;;0.50;0.50;;;11.10;99.90;;;;;;5036165;28;21086;-72
2022/05/04 06:11:59;;;;;;;0.50;0.50;;;11.30;99.90;;;;;;5037407;28;20429;-71
2022/05/04 06:14:47;;;;;;;0.50;0.50;;;11.40;99.90;;;;;;5037877;28;20843;-73
2022/05/04 06:17:35;;;;;;;0.50;0.50;;;11.60;99.90;;;;;;5036701;28;20525;-73
2022/05/04 06:20:24;;;;;;;0.47;0.47;;;11.60;99.90;;;;;;5037840;28;20506;-72
2022/05/04 06:23:12;;;;;;;3.90;3.33;;;11.60;99.90;;;;;;5036711;28;20417;-72
2022/05/04 06:26:01;;;;;;;2.13;1.43;;;11.60;99.90;;;;;;5037069;28;20424;-72
2022/05/04 06:28:49;;;;;;;5.43;2.40;;;11.70;99.90;;;;;;5038683;28;20554;-72
2022/05/04 06:34:43;;;;;;;0.47;0.47;;;11.70;99.90;;;;;;5039478;28;20428;-71
2022/05/04 06:37:31;;;;;;;2.30;2.20;;;11.80;99.90;;;;;;5037535;28;20763;-72
2022/05/04 06:40:20;;;;;;;2.30;2.20;;;11.80;99.90;;;;;;5039205;28;20450;-71
2022/05/04 06:43:09;;;;;;;0.47;0.47;;;11.90;99.90;;;;;;5037946;28;20463;-71
2022/05/04 06:45:58;;;;;;;0.53;0.53;;;12.10;99.90;;;;;;5041432;28;20436;-74
2022/05/04 06:48:46;;;;;;;0.40;0.40;;;12.20;99.90;;;;;;5041308;28;20444;-72
2022/05/04 06:51:35;;;;;;;0.50;0.50;;;12.40;99.90;;;;;;5038889;28;20487;-72
2022/05/04 06:54:23;;;;;;;0.40;0.40;;;12.60;99.90;;;;;;5041735;28;20426;-72
2022/05/04 06:57:12;;;;;;;0.87;0.87;;;12.70;99.90;;;;;;5041243;28;20532;-72
2022/05/04 07:00:04;;;;;;;0.40;0.40;;;12.80;99.90;;;;;;5048931;28;20456;-72
2022/05/04 07:02:52;;;;;;;0.50;0.50;;;13.20;99.90;;;;;;5040958;28;20444;-71
2022/05/04 07:05:40;;;;;;;0.50;0.50;;;13.30;99.90;;;;;;5039291;28;20444;-72
2022/05/04 07:08:28;;;;;;;0.50;0.50;;;13.40;99.90;;;;;;5041486;28;20425;-71
2022/05/04 07:11:16;;;;;;;0.40;0.40;;;13.30;99.90;;;;;;5039125;28;20554;-74
2022/05/04 07:14:05;;;;;;;0.60;0.60;;;12.90;99.90;;;;;;5040898;28;20747;-72
2022/05/04 07:16:54;;;;;;;0.50;0.50;;;12.60;99.90;;;;;;5038155;28;20522;-72
2022/05/04 07:19:42;;;;;;;0.50;0.50;;;12.30;99.90;;;;;;5039150;28;20539;-72
2022/05/04 07:22:31;;;;;;;0.50;0.50;;;12.10;99.90;;;;;;5039523;28;20470;-72
2022/05/04 07:25:25;;;;;;;0.80;0.80;;;12.10;99.90;;;;;;5040843;28;20523;-71
2022/05/04 07:28:13;;;;;;;0.50;0.50;;;12.00;99.90;;;;;;5037576;28;20499;-72
2022/05/04 07:31:03;;;;;;;0.50;0.50;;;12.10;99.90;;;;;;5039707;28;21108;-71
2022/05/04 07:33:52;;;;;;;1.07;0.60;;;12.20;99.90;;;;;;5040217;28;20460;-73
2022/05/04 07:36:41;;;;;;;0.60;0.50;;;12.30;99.90;;;;;;5038991;28;20451;-72
2022/05/04 07:42:36;;;;;;;0.50;0.50;;;12.60;99.90;;;;;;5038712;28;20451;-72
2022/05/04 07:45:24;;;;;;;0.43;0.43;;;12.70;99.90;;;;;;5038519;28;20511;-73
2022/05/04 07:48:12;;;;;;;0.60;0.60;;;12.80;99.90;;;;;;5037891;28;20487;-72
2022/05/04 07:51:01;;;;;;;0.50;0.50;;;12.90;99.90;;;;;;5038691;28;20522;-71
2022/05/04 07:53:49;;;;;;;0.40;0.40;;;13.00;99.90;;;;;;5038766;28;20445;-72
2022/05/04 07:56:38;;;;;;;0.50;0.50;;;13.00;99.90;;;;;;5038026;28;21245;-72
2022/05/04 07:59:26;;;;;;;1.77;1.67;;;13.10;99.90;;;;;;5037970;28;20993;-72
2022/05/04 08:05:21;;;;;;;0.50;0.50;;;13.30;99.90;;;;;;5033949;28;20477;-72
2022/05/04 08:08:10;;;;;;;0.50;0.50;;;13.40;99.90;;;;;;5032163;28;20428;-72
2022/05/04 08:10:58;;;;;;;1.37;1.37;;;13.50;99.90;;;;;;5021310;28;20505;-71
2022/05/04 08:13:46;;;;;;;0.40;0.40;;;13.60;99.90;;;;;;5023362;28;20502;-72
2022/05/04 08:16:34;;;;;;;0.50;0.50;;;13.70;99.90;;;;;;5030768;28;21016;-72
2022/05/04 08:19:23;;;;;;;2.80;2.40;;;13.90;99.90;;;;;;5021232;28;20458;-72
2022/05/04 08:22:14;;;;;;;0.40;0.40;;;13.80;99.90;;;;;;5022268;28;20419;-72
2022/05/04 08:25:04;;;;;;;0.50;0.50;;;14.10;99.90;;;;;;5014574;28;20426;-72
2022/05/04 08:27:52;;;;;;;0.40;0.40;;;14.20;99.90;;;;;;5014274;28;20426;-72
2022/05/04 08:30:41;;;;;;;0.50;0.50;;;14.30;99.90;;;;;;5014060;28;20473;-73
2022/05/04 08:33:29;;;;;;;0.43;0.43;;;14.40;99.90;;;;;;5023631;28;20229;-71
2022/05/04 08:36:17;;;;;;;1.50;1.13;;;14.60;99.90;;;;;;5034793;28;20207;-71
2022/05/04 08:39:06;;;;;;;1.53;1.50;;;14.80;99.90;;;;;;5039668;28;20202;-72
2022/05/04 08:41:56;;;;;;;0.40;0.40;;;15.00;99.90;;;;;;5015302;28;20698;-71
2022/05/04 08:44:48;;;;;;;0.40;0.40;;;15.30;99.90;;;;;;5015293;28;20764;-70
2022/05/04 08:47:39;;;;;;;0.50;0.50;;;15.70;99.90;;;;;;5015181;28;20256;-70
2022/05/04 08:50:33;;;;;;;0.40;0.40;;;16.20;99.90;;;;;;5013341;28;20225;-72
2022/05/04 08:53:21;;;;;;;0.50;0.50;;;16.60;99.90;;;;;;5012125;28;20676;-73
2022/05/04 08:56:10;;;;;;;0.50;0.50;;;17.10;99.90;;;;;;5013221;28;20211;-75
2022/05/04 08:59:01;;;;;;;0.70;0.60;;;17.50;99.90;;;;;;5026427;28;20698;-73
2022/05/04 09:01:49;;;;;;;0.50;0.50;;;17.70;99.90;;;;;;5041465;28;20560;-73
2022/05/04 09:04:42;;;;;;;0.80;0.80;;;17.70;99.90;;;;;;5028778;28;20206;-72
2022/05/04 09:07:31;;;;;;;0.40;0.40;;;17.90;99.90;;;;;;5020330;28;20206;-72
2022/05/04 09:10:22;;;;;;;0.40;0.40;;;18.10;99.90;;;;;;5012719;28;20222;-73
2022/05/04 09:13:11;;;;;;;0.40;0.40;;;18.20;99.90;;;;;;5011065;28;20237;-72
2022/05/04 09:16:00;;;;;;;1.48;1.38;;;18.10;99.90;;;;;;5031276;28;20745;-72
2022/05/04 09:18:49;;;;;;;0.40;0.40;;;18.00;99.90;;;;;;5032422;28;20235;-72
2022/05/04 09:21:39;;;;;;;0.47;0.47;;;18.20;99.90;;;;;;5023314;28;20650;-74
2022/05/04 09:24:28;;;;;;;0.40;0.40;;;18.50;99.90;;;;;;5029260;28;20697;-73
2022/05/04 09:27:17;;;;;;;0.40;0.40;;;19.00;99.90;;;;;;5030727;28;20210;-74
2022/05/04 09:30:06;;;;;;;0.40;0.40;;;19.40;99.90;;;;;;5030527;28;20226;-73
2022/05/04 09:32:56;;;;;;;0.40;0.40;;;20.10;99.90;;;;;;5030777;28;20213;-71
2022/05/04 09:35:45;;;;;;;0.40;0.40;;;20.40;99.90;;;;;;5030012;28;20566;-73
2022/05/04 09:47:49;;;;;;;0.40;0.40;;;20.30;99.60;;;;;;5023225;28;20214;-73
2022/05/04 09:50:41;;;;;;;1.13;0.60;;;20.50;99.30;;;;;;5028836;28;20237;-73
2022/05/04 09:53:29;;;;;;;0.40;0.40;;;20.40;98.90;;;;;;5022556;28;20214;-73
2022/05/04 09:56:17;;;;;;;0.40;0.40;;;20.30;98.60;;;;;;5023323;28;20207;-72
2022/05/04 09:59:06;;;;;;;0.43;0.43;;;20.40;98.70;;;;;;5020508;28;20198;-72
2022/05/04 10:01:54;;;;;;;0.40;0.40;;;20.60;98.10;;;;;;5021300;28;20209;-73
2022/05/04 10:04:44;;;;;;;0.50;0.50;;;21.00;98.00;;;;;;5028692;28;20244;-71
2022/05/04 10:07:36;;;;;;;0.40;0.40;;;21.40;96.70;;;;;;5023108;28;20203;-72
2022/05/04 10:10:25;;;;;;;0.50;0.50;;;21.70;96.10;;;;;;5038209;28;20699;-73
2022/05/04 10:13:16;;;;;;;0.50;0.50;;;21.90;95.40;;;;;;5027134;28;20435;-74
2022/05/04 10:16:08;;;;;;;0.40;0.40;;;22.00;94.40;;;;;;5028929;28;20615;-73
2022/05/04 10:18:58;;;;;;;0.40;0.40;;;21.90;94.30;;;;;;5042026;28;20201;-74
2022/05/04 10:21:51;;;;;;;0.40;0.40;;;21.90;94.40;;;;;;5033073;28;20202;-72
2022/05/04 10:24:44;;;;;;;0.40;0.40;;;22.00;93.60;;;;;;5034620;28;20194;-73
2022/05/04 10:27:40;;;;;;;0.40;0.40;;;22.10;93.10;;;;;;5034495;28;20209;-72
2022/05/04 10:30:31;;;;;;;0.40;0.40;;;21.90;92.80;;;;;;5034778;28;20304;-72
2022/05/04 10:33:23;;;;;;;0.40;0.40;;;22.00;92.80;;;;;;5034359;28;20210;-72
2022/05/04 10:36:16;;;;;;;0.40;0.40;;;22.10;91.90;;;;;;5034413;28;20206;-72
2022/05/04 10:39:06;;;;;;;0.40;0.40;;;22.20;92.00;;;;;;5033006;28;20233;-72
2022/05/04 10:41:56;;;;;;;0.40;0.40;;;22.30;91.80;;;;;;5031280;28;20225;-72
2022/05/04 10:44:53;;;;;;;0.40;0.40;;;22.30;91.10;;;;;;5047892;28;20698;-72
2022/05/04 10:47:42;;;;;;;0.50;0.50;;;22.40;91.20;;;;;;5021300;28;20686;-72
2022/05/04 10:50:48;;;;;;;0.40;0.40;;;22.20;89.80;;;;;;5033381;28;20222;-74
2022/05/04 10:53:42;;;;;;;0.40;0.40;;;22.10;90.20;;;;;;5016708;28;20198;-73
2022/05/04 10:56:37;;;;;;;0.40;0.40;;;21.80;89.10;;;;;;5043546;28;20201;-72
2022/05/04 10:59:27;;;;;;;0.40;0.40;;;21.60;89.50;;;;;;5031792;28;20222;-73
2022/05/04 11:02:19;;;;;;;0.40;0.40;;;21.30;90.10;;;;;;5031216;28;20206;-72
2022/05/04 11:05:12;;;;;;;0.40;0.40;;;21.10;90.10;;;;;;5027384;28;20303;-73
2022/05/04 11:08:01;;;;;;;0.40;0.40;;;20.90;90.10;;;;;;5034973;28;20216;-73
2022/05/04 11:10:49;;;;;;;0.50;0.50;;;20.90;90.70;;;;;;5033039;28;20225;-74
2022/05/04 11:13:38;;;;;;;0.40;0.40;;;20.80;90.50;;;;;;5022731;28;20283;-72
2022/05/04 11:16:28;;;;;;;0.40;0.40;;;20.80;90.70;;;;;;5021309;28;20238;-72
2022/05/04 11:19:23;;;;;;;0.40;0.40;;;21.00;90.60;;;;;;5019724;28;20225;-73
2022/05/04 11:22:14;;;;;;;0.40;0.40;;;21.10;90.40;;;;;;5021364;28;20333;-74
2022/05/04 11:25:25;;;;;;;0.40;0.40;;;21.20;90.90;;;;;;5030222;28;20279;-74
2022/05/04 11:28:19;;;;;;;0.40;0.40;;;21.20;90.10;;;;;;5024565;28;20269;-73
2022/05/04 11:31:10;;;;;;;0.40;0.40;;;21.60;90.50;;;;;;5020260;28;21092;-73
2022/05/04 11:33:59;;;;;;;0.40;0.40;;;22.20;90.10;;;;;;5033777;28;20274;-72
2022/05/04 11:36:49;;;;;;;2.78;2.58;;;22.40;88.60;;;;;;5018581;28;20191;-73
2022/05/04 11:39:39;;;;;;;0.40;0.40;;;22.70;88.00;;;;;;5023182;28;20629;-73
2022/05/04 11:42:27;;;;;;;0.40;0.40;;;22.90;87.70;;;;;;5025646;28;20198;-72
2022/05/04 11:45:15;;;;;;;2.78;2.67;;;23.10;85.40;;;;;;5027041;28;20198;-72
2022/05/04 11:48:03;;;;;;;0.40;0.40;;;23.00;84.70;;;;;;5018874;28;20198;-72
2022/05/04 11:50:53;;;;;;;0.40;0.40;;;22.80;84.20;;;;;;5020489;28;20722;-77
2022/05/04 11:53:41;;;;;;;0.50;0.50;;;22.90;84.70;;;;;;5030903;28;20665;-72
2022/05/04 11:56:29;;;;;;;0.40;0.40;;;23.00;85.40;;;;;;5033912;28;20198;-72
2022/05/04 11:59:17;;;;;;;0.40;0.40;;;23.10;85.00;;;;;;5023241;28;20202;-72
2022/05/04 12:02:07;;;;;;;0.50;0.50;;;23.00;82.80;;;;;;5019260;28;20274;-74
2022/05/04 12:04:56;;;;;;;0.40;0.40;;;22.90;81.80;;;;;;5017680;28;20226;-72
2022/05/04 12:07:53;;;;;;;0.40;0.40;;;22.90;82.50;;;;;;5025928;28;20206;-73
2022/05/04 12:10:43;;;;;;;0.40;0.40;;;23.00;82.30;;;;;;5021301;28;20229;-72
2022/05/04 12:13:32;;;;;;;0.40;0.40;;;22.90;83.30;;;;;;5022373;28;20246;-72
2022/05/04 12:16:20;;;;;;;0.40;0.40;;;23.10;83.40;;;;;;5023522;28;20202;-73
2022/05/04 12:19:09;;;;;;;0.40;0.40;;;23.20;82.10;;;;;;5025337;28;20255;-72
2022/05/04 12:21:57;;;;;;;0.40;0.40;;;23.40;82.50;;;;;;5024130;28;20203;-72
2022/05/04 12:24:48;;;;;;;0.40;0.40;;;23.60;80.90;;;;;;5026742;28;20198;-73
2022/05/04 12:27:38;;;;;;;0.40;0.40;;;23.90;81.20;;;;;;5022208;28;20225;-73
2022/05/04 12:33:37;;;;;;;0.40;0.40;;;24.20;78.80;;;;;;5022703;28;20217;-71
2022/05/04 12:36:26;;;;;;;0.40;0.40;;;23.80;78.40;;;;;;5022472;28;20198;-70
2022/05/04 12:39:14;;;;;;;0.50;0.50;;;23.50;78.40;;;;;;5024516;28;20218;-72
2022/05/04 12:42:04;;;;;;;2.15;2.05;;;23.40;79.10;;;;;;5021501;28;20667;-73
2022/05/04 12:44:56;;;;;;;0.40;0.40;;;23.50;79.60;;;;;;5024282;28;20199;-72
2022/05/04 12:47:46;;;;;;;0.40;0.40;;;23.60;79.70;;;;;;5032498;28;20589;-72
2022/05/04 12:50:35;;;;;;;0.40;0.40;;;23.90;79.90;;;;;;5026350;28;20242;-74
2022/05/04 12:53:24;;;;;;;0.40;0.40;;;24.00;79.00;;;;;;5031418;28;20709;-74
2022/05/04 12:59:20;;;;;;;0.40;0.40;;;23.90;78.20;;;;;;5023578;28;20222;-76
2022/05/04 13:02:09;;;;;;;0.40;0.40;;;23.90;78.50;;;;;;5032245;28;20194;-75
2022/05/04 13:04:57;;;;;;;0.60;0.60;;;23.90;77.70;;;;;;5032253;28;20198;-73
2022/05/04 13:07:45;;;;;;;0.40;0.40;;;24.10;78.10;;;;;;5021325;28;20663;-76
2022/05/04 13:10:34;;;;;;;0.40;0.40;;;23.70;77.00;;;;;;5016941;28;20683;-74
2022/05/04 13:13:25;;;;;;;0.40;0.40;;;23.40;78.50;;;;;;5026031;28;20228;-75
2022/05/04 13:16:15;;;;;;;0.40;0.40;;;23.60;80.00;;;;;;5020364;28;20206;-73
2022/05/04 13:19:06;;;;;;;0.40;0.40;;;24.00;79.30;;;;;;5021157;28;20197;-72
2022/05/04 13:21:54;;;;;;;0.40;0.40;;;24.10;78.70;;;;;;5017450;28;20718;-75
2022/05/04 13:24:42;;;;;;;0.40;0.40;;;24.10;78.20;;;;;;5020029;28;20655;-74
2022/05/04 13:27:30;;;;;;;0.40;0.40;;;24.00;78.20;;;;;;5021556;28;20260;-71
2022/05/04 13:30:20;;;;;;;0.88;0.88;;;24.10;78.00;;;;;;5020275;28;20314;-74
2022/05/04 13:33:10;;;;;;;0.40;0.40;;;24.20;76.80;;;;;;5021378;28;20229;-74
2022/05/04 13:35:58;;;;;;;0.40;0.40;;;23.80;76.70;;;;;;5021558;28;20203;-71
2022/05/04 13:38:46;;;;;;;0.40;0.40;;;24.00;77.30;;;;;;5022407;28;20198;-73
2022/05/04 13:41:34;;;;;;;0.40;0.40;;;24.20;76.60;;;;;;5020540;28;20229;-73
2022/05/04 13:44:23;;;;;;;2.90;2.80;;;24.60;77.00;;;;;;5035635;28;20202;-74
2022/05/04 13:47:11;;;;;;;1.40;0.75;;;24.70;76.30;;;;;;5036269;28;20745;-74
2022/05/04 13:50:01;;;;;;;0.40;0.40;;;24.30;75.50;;;;;;5036126;28;20634;-75
2022/05/04 13:55:56;;;;;;;0.40;0.40;;;23.60;76.20;;;;;;5023712;28;20198;-73
2022/05/04 13:58:44;;;;;;;0.40;0.40;;;23.20;76.90;;;;;;5019292;28;20198;-75
2022/05/04 14:01:32;;;;;;;0.40;0.40;;;23.40;77.40;;;;;;5019731;28;20198;-75
2022/05/04 14:04:20;;;;;;;0.40;0.40;;;23.60;78.30;;;;;;5023073;28;20207;-73
2022/05/04 14:07:10;;;;;;;0.40;0.40;;;23.70;77.20;;;;;;5027222;28;20198;-73
2022/05/04 14:10:00;;;;;;;0.40;0.40;;;23.80;78.80;;;;;;5027963;28;20246;-75
2022/05/04 14:12:48;;;;;;;0.40;0.40;;;23.80;77.60;;;;;;5023619;28;20296;-73
2022/05/04 14:15:36;;;;;;;0.40;0.40;;;24.00;77.50;;;;;;5017008;28;20198;-74
2022/05/04 14:18:24;;;;;;;0.40;0.40;;;24.00;76.90;;;;;;5030425;28;20202;-73
2022/05/04 14:21:12;;;;;;;0.40;0.40;;;24.30;77.30;;;;;;5047571;28;20773;-74
2022/05/04 14:24:03;;;;;;;0.50;0.50;;;24.50;77.10;;;;;;5036750;28;20606;-73
2022/05/04 14:26:52;;;;;;;0.60;0.60;;;24.70;77.10;;;;;;5031552;28;20229;-74
2022/05/04 14:29:40;;;;;;;0.40;0.40;;;24.80;75.40;;;;;;5022155;28;20606;-74
2022/05/04 14:32:28;;;;;;;0.40;0.40;;;25.00;75.80;;;;;;5015505;28;20257;-74
2022/05/04 14:35:16;;;;;;;1.38;1.27;;;25.20;73.80;;;;;;5025425;28;20876;-72
2022/05/04 14:38:05;;;;;;;0.40;0.40;;;25.20;72.70;;;;;;5024086;28;20675;-73
2022/05/04 14:40:54;;;;;;;0.40;0.40;;;25.00;73.10;;;;;;5014571;28;20699;-73
2022/05/04 14:43:47;;;;;;;0.40;0.40;;;26.00;73.80;;;;;;5026007;28;20206;-72
2022/05/04 14:46:35;;;;;;;0.40;0.40;;;28.80;69.20;;;;;;5025085;28;20202;-72
2022/05/04 14:49:26;;;;;;;1.58;1.48;;;31.10;64.10;;;;;;5021299;28;20214;-72
2022/05/04 14:52:15;;;;;;;0.40;0.40;;;32.50;59.80;;;;;;5025342;28;20242;-72
2022/05/04 14:55:03;;;;;;;0.40;0.40;;;33.30;57.30;;;;;;5020836;28;20206;-72
2022/05/04 14:57:53;;;;;;;0.40;0.40;;;33.50;55.50;;;;;;5027711;28;20280;-72
2022/05/04 15:00:42;;;;;;;0.40;0.40;;;32.80;55.00;;;;;;5023865;28;20226;-71
2022/05/04 15:06:36;;;;;;;0.40;0.40;;;32.20;54.20;;;;;;5027390;28;20202;-73
2022/05/04 15:09:36;;;;;;;0.40;0.40;;;30.80;54.50;;;;;;5026655;28;20226;-72
2022/05/04 15:12:25;;;;;;;0.40;0.40;;;29.70;56.50;;;;;;5032263;28;20205;-70
2022/05/04 15:15:15;;;;;;;0.40;0.40;;;28.70;56.70;;;;;;5033841;28;20214;-72
2022/05/04 15:18:03;;;;;;;0.40;0.40;;;27.60;58.50;;;;;;5033787;28;20206;-72
2022/05/04 15:20:51;;;;;;;0.43;0.43;;;26.30;59.80;;;;;;5065139;23;20229;-67
2022/05/04 15:23:40;;;;;;;0.40;0.40;;;25.30;62.40;;;;;;5065561;28;20311;-68